Time;durP1;ratioP1;P1;durP2;ratioP2;P2;SDS_P1;SDS_P2;PMS_P1;PMS_P2;Temp;Humidity;BMP_temperature;BMP_pressure;BME280_temperature;BME280_humidity;BME280_pressure;Samples;Min_cycle;Max_cycle;Signal;HPM_P1;HPM_P2
2024/02/29 00:00:19;;;;;;;29.30;12.32;;;;;;;8.52;100.00;100664.50;5087954;28;20027;-77
2024/02/29 00:02:45;;;;;;;25.27;11.68;;;;;;;8.35;100.00;100664.72;5088372;28;20710;-78
2024/02/29 00:05:11;;;;;;;24.33;11.55;;;;;;;8.41;100.00;100669.31;5088581;28;20093;-77
2024/02/29 00:07:40;;;;;;;23.00;10.48;;;;;;;8.58;100.00;100672.56;5088085;28;20502;-77
2024/02/29 00:10:07;;;;;;;33.22;11.05;;;;;;;8.47;100.00;100691.66;5088038;28;20078;-78
2024/02/29 00:12:32;;;;;;;26.20;11.88;;;;;;;8.36;100.00;100679.69;5088197;28;20518;-77
2024/02/29 00:14:57;;;;;;;22.38;10.82;;;;;;;8.34;100.00;100688.84;5088204;28;20028;-77
2024/02/29 00:17:23;;;;;;;23.05;12.70;;;;;;;8.33;100.00;100690.66;5087907;28;20039;-77
2024/02/29 00:19:48;;;;;;;25.80;12.63;;;;;;;8.16;100.00;100670.69;5087797;28;20036;-77
2024/02/29 00:22:14;;;;;;;27.33;12.40;;;;;;;8.28;100.00;100671.84;5087655;28;20394;-77
2024/02/29 00:24:39;;;;;;;23.13;11.07;;;;;;;8.30;100.00;100680.44;5087736;28;20040;-76
2024/02/29 00:27:05;;;;;;;22.20;11.32;;;;;;;7.91;100.00;100673.69;5087587;28;20105;-77
2024/02/29 00:29:31;;;;;;;23.55;11.38;;;;;;;7.95;100.00;100679.44;5087966;28;20042;-77
2024/02/29 00:32:02;;;;;;;25.67;13.00;;;;;;;7.75;100.00;100655.31;5084961;28;20027;-77
2024/02/29 00:34:30;;;;;;;24.33;12.02;;;;;;;7.77;100.00;100650.63;5088147;28;20060;-77
2024/02/29 00:36:56;;;;;;;24.77;12.98;;;;;;;7.91;100.00;100686.13;5069711;28;20444;-77
2024/02/29 00:39:22;;;;;;;24.85;12.30;;;;;;;7.80;100.00;100672.28;5087918;28;20500;-77
2024/02/29 00:41:47;;;;;;;25.70;13.18;;;;;;;7.71;100.00;100677.91;5087686;28;20032;-77
2024/02/29 00:44:13;;;;;;;19.73;10.85;;;;;;;7.62;100.00;100682.47;5087758;28;20047;-78
2024/02/29 00:46:39;;;;;;;26.50;11.30;;;;;;;7.78;100.00;100681.47;5085489;28;20408;-76
2024/02/29 00:49:04;;;;;;;31.67;13.25;;;;;;;7.59;100.00;100690.81;5100993;28;20024;-76
2024/02/29 00:51:30;;;;;;;25.00;11.63;;;;;;;7.86;100.00;100681.38;5086952;28;20085;-76
2024/02/29 00:53:55;;;;;;;27.60;12.38;;;;;;;7.67;100.00;100655.41;5087211;28;20051;-76
2024/02/29 00:56:21;;;;;;;28.42;12.07;;;;;;;7.36;100.00;100672.34;5103198;28;20030;-76
2024/02/29 00:58:46;;;;;;;23.83;11.65;;;;;;;7.26;100.00;100645.28;5087384;28;20386;-77
2024/02/29 01:01:12;;;;;;;22.70;11.85;;;;;;;7.40;100.00;100666.50;5087218;28;20403;-76
2024/02/29 01:03:37;;;;;;;25.08;13.25;;;;;;;7.29;100.00;100674.88;5087276;28;20028;-76
2024/02/29 01:06:04;;;;;;;30.08;13.45;;;;;;;7.16;100.00;100675.53;5069508;28;20043;-77
2024/02/29 01:08:30;;;;;;;31.75;13.35;;;;;;;7.18;100.00;100681.47;5087269;28;20032;-78
2024/02/29 01:10:55;;;;;;;30.83;13.60;;;;;;;6.82;100.00;100626.50;5086791;28;20097;-77
2024/02/29 01:13:21;;;;;;;26.45;13.10;;;;;;;7.14;100.00;100688.16;5087165;28;20089;-78
2024/02/29 01:15:46;;;;;;;22.88;11.98;;;;;;;6.96;100.00;100677.88;5087156;28;20040;-78
2024/02/29 01:18:11;;;;;;;24.83;12.85;;;;;;;6.87;100.00;100664.91;5086695;28;20042;-75
2024/02/29 01:20:37;;;;;;;25.90;13.02;;;;;;;7.04;100.00;100687.59;5102524;28;20020;-78
2024/02/29 01:23:02;;;;;;;24.73;13.35;;;;;;;6.98;100.00;100683.00;5069476;28;20086;-77
2024/02/29 01:25:28;;;;;;;25.60;13.07;;;;;;;6.89;100.00;100690.22;5087697;28;20525;-78
2024/02/29 01:27:54;;;;;;;31.77;14.68;;;;;;;7.11;100.00;100688.53;5086616;28;20063;-77
2024/02/29 01:30:20;;;;;;;28.88;13.45;;;;;;;6.69;100.00;100666.03;5068513;28;20024;-77
2024/02/29 01:32:47;;;;;;;28.48;13.35;;;;;;;6.92;100.00;100691.69;5068616;28;20040;-76
2024/02/29 01:35:12;;;;;;;24.23;12.70;;;;;;;6.62;100.00;100663.28;5087083;28;20028;-77
2024/02/29 01:37:38;;;;;;;29.08;13.27;;;;;;;6.71;100.00;100664.03;5068998;28;20023;-77
2024/02/29 01:40:04;;;;;;;25.65;13.25;;;;;;;6.53;100.00;100653.72;5086600;28;20023;-77
2024/02/29 01:42:29;;;;;;;28.60;12.27;;;;;;;6.47;100.00;100643.03;5068548;28;20394;-76
2024/02/29 01:44:55;;;;;;;31.17;12.77;;;;;;;6.47;100.00;100675.63;5068824;28;20540;-78
2024/02/29 01:47:25;;;;;;;26.17;12.63;;;;;;;6.23;100.00;100656.28;5086502;28;20032;-77
2024/02/29 01:49:54;;;;;;;25.40;13.13;;;;;;;6.39;100.00;100663.25;5068696;28;20024;-77
2024/02/29 01:52:21;;;;;;;30.08;12.77;;;;;;;6.48;100.00;100681.75;5086989;28;20028;-77
2024/02/29 01:54:47;;;;;;;26.75;12.18;;;;;;;6.42;100.00;100686.75;5057743;28;20032;-78
2024/02/29 01:57:13;;;;;;;32.30;14.82;;;;;;;6.40;100.00;100685.31;5087916;28;20028;-77
2024/02/29 01:59:39;;;;;;;26.33;12.20;;;;;;;6.21;100.00;100692.69;5078293;28;20043;-77
2024/02/29 02:02:05;;;;;;;22.92;12.60;;;;;;;6.26;100.00;100708.06;5098467;28;20020;-78
2024/02/29 02:04:31;;;;;;;26.42;12.13;;;;;;;6.15;100.00;100706.66;5097651;28;20043;-78
2024/02/29 02:06:58;;;;;;;24.98;12.23;;;;;;;6.11;100.00;100717.72;5098446;28;20397;-77
2024/02/29 02:09:24;;;;;;;23.77;12.85;;;;;;;5.93;100.00;100694.97;5097466;28;20032;-77
2024/02/29 02:11:50;;;;;;;25.60;12.27;;;;;;;5.93;100.00;100700.25;5079520;28;20038;-78
2024/02/29 02:14:16;;;;;;;27.02;12.38;;;;;;;6.00;100.00;100698.59;5097685;28;20024;-77
2024/02/29 02:16:42;;;;;;;25.42;13.02;;;;;;;6.00;100.00;100695.13;5095956;28;20027;-78
2024/02/29 02:19:12;;;;;;;24.20;13.40;;;;;;;6.04;100.00;100709.66;5093426;28;20032;-78
2024/02/29 02:21:40;;;;;;;28.02;13.95;;;;;;;6.19;100.00;100709.75;5093607;28;20571;-78
2024/02/29 02:24:06;;;;;;;28.52;13.68;;;;;;;5.95;100.00;100687.72;5092945;28;20035;-78
2024/02/29 02:26:33;;;;;;;25.52;13.90;;;;;;;6.24;100.00;100718.00;5093202;28;20028;-78
2024/02/29 02:28:59;;;;;;;25.58;12.60;;;;;;;5.93;100.00;100710.84;5093139;28;20038;-78
2024/02/29 02:31:25;;;;;;;32.38;14.15;;;;;;;5.77;100.00;100695.03;5074634;28;20119;-77
2024/02/29 02:33:50;;;;;;;28.77;13.35;;;;;;;6.03;100.00;100723.91;5091793;28;20516;-78
2024/02/29 02:36:16;;;;;;;29.77;15.60;;;;;;;6.01;100.00;100713.50;5072804;28;20028;-78
2024/02/29 02:38:41;;;;;;;31.48;14.90;;;;;;;6.03;100.00;100711.50;5089460;28;20036;-78
2024/02/29 02:41:07;;;;;;;32.53;14.82;;;;;;;6.12;100.00;100724.69;5088664;28;20432;-78
2024/02/29 02:43:32;;;;;;;31.40;15.48;;;;;;;6.08;100.00;100726.03;5087937;28;20024;-78
2024/02/29 02:45:57;;;;;;;31.55;13.73;;;;;;;5.99;100.00;100720.78;5069610;28;20409;-78
2024/02/29 02:48:23;;;;;;;29.25;14.18;;;;;;;5.79;100.00;100719.50;5087310;28;20154;-77
2024/02/29 02:50:48;;;;;;;29.02;14.65;;;;;;;5.83;100.00;100719.00;5068539;28;20373;-77
2024/02/29 02:53:14;;;;;;;32.47;16.25;;;;;;;5.69;100.00;100709.13;5086484;28;20020;-76
2024/02/29 02:55:39;;;;;;;34.30;17.23;;;;;;;5.87;100.00;100750.44;5086532;28;20428;-77
2024/02/29 02:58:04;;;;;;;35.67;17.63;;;;;;;5.39;100.00;100686.88;5086502;28;20055;-77
2024/02/29 03:00:30;;;;;;;32.00;16.60;;;;;;;5.83;100.00;100744.66;5063727;28;20177;-78
2024/02/29 03:02:55;;;;;;;29.20;16.30;;;;;;;5.56;100.00;100749.34;5085922;28;20469;-77
2024/02/29 03:05:22;;;;;;;30.25;16.02;;;;;;;5.43;100.00;100704.06;5085794;28;20039;-77
2024/02/29 03:07:47;;;;;;;40.35;25.88;;;;;;;5.62;100.00;100729.34;5086342;28;20028;-77
2024/02/29 03:10:13;;;;;;;54.95;29.80;;;;;;;5.41;100.00;100706.06;5089007;28;20602;-77
2024/02/29 03:12:38;;;;;;;31.63;18.38;;;;;;;5.53;100.00;100723.22;5089245;28;20020;-77
2024/02/29 03:15:05;;;;;;;41.53;26.27;;;;;;;5.45;100.00;100723.25;5089375;28;20036;-78
2024/02/29 03:17:30;;;;;;;34.22;19.60;;;;;;;5.44;100.00;100724.25;5089737;28;20024;-78
2024/02/29 03:19:56;;;;;;;44.95;29.00;;;;;;;5.27;100.00;100681.16;5088939;28;20477;-78
2024/02/29 03:22:21;;;;;;;29.77;16.00;;;;;;;5.71;100.00;100695.72;5089178;28;20582;-78
2024/02/29 03:24:47;;;;;;;30.88;16.77;;;;;;;5.53;100.00;100720.56;5070859;28;20493;-77
2024/02/29 03:27:12;;;;;;;31.58;15.35;;;;;;;5.44;100.00;100724.25;5088967;28;20056;-78
2024/02/29 03:29:38;;;;;;;34.22;17.75;;;;;;;5.35;100.00;100719.97;5070934;28;20506;-77
2024/02/29 03:32:04;;;;;;;30.00;17.60;;;;;;;5.30;100.00;100736.34;5088723;28;20412;-78
2024/02/29 03:34:29;;;;;;;30.73;14.52;;;;;;;5.41;100.00;100737.81;5089046;28;21176;-77
2024/02/29 03:36:54;;;;;;;34.17;17.17;;;;;;;5.26;100.00;100739.50;5070433;28;20043;-77
2024/02/29 03:39:20;;;;;;;32.17;15.55;;;;;;;5.29;100.00;100729.41;5088709;28;21373;-77
2024/02/29 03:41:45;;;;;;;29.80;14.77;;;;;;;5.23;100.00;100703.63;5088986;28;20028;-77
2024/02/29 03:44:11;;;;;;;28.95;14.63;;;;;;;5.27;100.00;100704.13;5088709;28;20027;-77
2024/02/29 03:46:36;;;;;;;28.40;14.48;;;;;;;5.26;100.00;100723.63;5088546;28;20410;-77
2024/02/29 03:49:01;;;;;;;29.02;14.27;;;;;;;5.01;100.00;100716.53;5097975;28;20455;-78
2024/02/29 03:51:27;;;;;;;30.58;13.68;;;;;;;5.08;100.00;100721.16;5088287;28;20767;-77
2024/02/29 03:53:52;;;;;;;30.48;15.52;;;;;;;4.65;100.00;100700.19;5088372;28;20030;-77
2024/02/29 03:56:18;;;;;;;30.73;16.55;;;;;;;4.77;100.00;100705.97;5088781;28;20032;-77
2024/02/29 03:58:43;;;;;;;33.53;16.25;;;;;;;4.83;100.00;100729.94;5088562;28;20028;-77
2024/02/29 04:01:10;;;;;;;36.15;15.57;;;;;;;4.73;100.00;100702.84;5087975;28;20031;-76
2024/02/29 04:03:37;;;;;;;31.63;15.50;;;;;;;4.72;100.00;100695.91;5088059;28;20107;-77
2024/02/29 04:06:03;;;;;;;38.23;16.03;;;;;;;4.30;100.00;100710.06;5078501;28;20470;-78
2024/02/29 04:08:28;;;;;;;34.28;13.98;;;;;;;4.15;100.00;100709.88;5088153;28;20032;-78
2024/02/29 04:10:55;;;;;;;38.72;14.98;;;;;;;4.06;100.00;100710.00;5087835;28;20141;-78
2024/02/29 04:13:22;;;;;;;36.95;15.18;;;;;;;4.06;100.00;100713.44;5088536;28;20035;-78
2024/02/29 04:15:48;;;;;;;33.70;14.50;;;;;;;3.85;100.00;100703.34;5088041;28;20123;-78
2024/02/29 04:18:13;;;;;;;36.70;16.00;;;;;;;3.97;100.00;100695.97;5070311;28;20205;-77
2024/02/29 04:20:39;;;;;;;40.88;17.27;;;;;;;4.09;100.00;100712.31;5086454;28;20721;-78
2024/02/29 04:23:04;;;;;;;39.22;16.65;;;;;;;4.14;100.00;100734.59;5069606;28;20032;-77
2024/02/29 04:25:30;;;;;;;35.92;14.00;;;;;;;4.08;100.00;100721.22;5087425;28;20040;-77
2024/02/29 04:27:56;;;;;;;43.10;16.17;;;;;;;3.85;100.00;100698.06;5088150;28;20051;-77
2024/02/29 04:30:22;;;;;;;52.63;16.45;;;;;;;4.05;100.00;100721.56;5069524;28;20032;-77
2024/02/29 04:32:47;;;;;;;43.15;16.65;;;;;;;3.97;100.00;100717.88;5069731;28;20034;-78
2024/02/29 04:35:13;;;;;;;52.25;17.05;;;;;;;4.01;100.00;100719.22;5069634;28;20028;-77
2024/02/29 04:37:38;;;;;;;44.38;15.30;;;;;;;3.93;100.00;100684.06;5087465;28;20461;-77
2024/02/29 04:40:04;;;;;;;49.28;15.88;;;;;;;4.20;100.00;100733.13;5088089;28;20028;-77
2024/02/29 04:42:30;;;;;;;61.80;16.48;;;;;;;4.10;100.00;100724.53;5069338;28;20028;-77
2024/02/29 04:44:56;;;;;;;166.35;53.15;;;;;;;4.20;100.00;100707.56;5087706;28;20074;-77
2024/02/29 04:47:22;;;;;;;49.17;20.13;;;;;;;4.19;100.00;100695.34;5087697;28;20040;-77
2024/02/29 04:49:48;;;;;;;43.25;15.93;;;;;;;4.40;100.00;100729.22;5087682;28;20258;-78
2024/02/29 04:52:13;;;;;;;44.70;17.63;;;;;;;4.50;100.00;100738.81;5087784;28;20506;-77
2024/02/29 04:54:39;;;;;;;58.30;17.75;;;;;;;4.42;100.00;100727.25;5086987;28;20134;-77
2024/02/29 04:57:04;;;;;;;77.97;17.33;;;;;;;4.60;100.00;100726.28;5087403;28;20500;-77
2024/02/29 04:59:31;;;;;;;47.72;16.38;;;;;;;4.45;100.00;100736.66;5087267;28;20024;-78
2024/02/29 05:01:57;;;;;;;52.00;15.88;;;;;;;4.56;100.00;100748.75;5087361;28;20600;-77
2024/02/29 05:04:23;;;;;;;43.75;16.17;;;;;;;4.46;100.00;100742.78;5086973;28;20485;-78
2024/02/29 05:06:48;;;;;;;48.25;17.35;;;;;;;4.35;100.00;100736.81;5086789;28;20425;-78
2024/02/29 05:09:13;;;;;;;39.55;16.67;;;;;;;4.25;100.00;100736.13;5086941;28;20028;-77
2024/02/29 05:11:39;;;;;;;40.35;16.45;;;;;;;4.20;100.00;100754.25;5087228;28;20142;-77
2024/02/29 05:14:05;;;;;;;44.40;16.60;;;;;;;4.02;100.00;100725.31;5087376;28;20020;-77
2024/02/29 05:16:30;;;;;;;78.60;20.13;;;;;;;4.40;100.00;100739.78;5068599;28;20032;-77
2024/02/29 05:18:56;;;;;;;90.50;19.67;;;;;;;4.37;100.00;100734.84;5087304;28;20111;-77
2024/02/29 05:21:21;;;;;;;66.85;18.42;;;;;;;4.25;100.00;100730.84;5086649;28;20416;-78
2024/02/29 05:23:47;;;;;;;42.53;17.00;;;;;;;4.36;100.00;100746.38;5086444;28;20102;-78
2024/02/29 05:26:12;;;;;;;51.28;17.73;;;;;;;4.37;100.00;100745.41;5087047;28;20040;-78
2024/02/29 05:28:38;;;;;;;51.20;18.73;;;;;;;4.33;100.00;100746.72;5068542;28;20040;-78
2024/02/29 05:31:03;;;;;;;50.28;19.40;;;;;;;4.33;100.00;100744.06;5068186;28;20058;-78
2024/02/29 05:33:29;;;;;;;57.67;18.50;;;;;;;4.45;100.00;100738.47;5086265;28;20022;-78
2024/02/29 05:35:55;;;;;;;47.05;17.90;;;;;;;4.50;100.00;100771.34;5068597;28;20115;-78
2024/02/29 05:38:20;;;;;;;43.15;18.70;;;;;;;4.35;100.00;100742.09;5086399;28;20032;-77
2024/02/29 05:40:47;;;;;;;50.10;24.10;;;;;;;4.56;100.00;100743.47;5086784;28;20135;-77
2024/02/29 05:43:14;;;;;;;68.68;23.77;;;;;;;4.73;100.00;100774.19;5085719;28;20119;-78
2024/02/29 05:45:40;;;;;;;43.35;18.33;;;;;;;4.89;100.00;100780.50;5086399;28;20114;-78
2024/02/29 05:48:06;;;;;;;48.70;18.02;;;;;;;4.77;100.00;100756.19;5068467;28;20433;-78
2024/02/29 05:50:31;;;;;;;51.40;18.38;;;;;;;4.79;100.00;100788.56;5068151;28;20521;-77
2024/02/29 05:52:58;;;;;;;49.58;19.80;;;;;;;4.81;100.00;100760.97;5086292;28;20024;-77
2024/02/29 05:55:24;;;;;;;51.55;19.88;;;;;;;5.10;100.00;100788.75;5085759;28;20031;-78
2024/02/29 05:57:49;;;;;;;53.30;20.23;;;;;;;5.14;100.00;100779.47;5086241;28;20036;-78
2024/02/29 06:00:17;;;;;;;44.65;19.13;;;;;;;5.28;100.00;100785.13;5067687;28;20089;-79
2024/02/29 06:02:43;;;;;;;41.75;18.00;;;;;;;5.04;100.00;100769.06;5068108;28;20146;-78
2024/02/29 06:05:09;;;;;;;43.20;17.70;;;;;;;5.05;100.00;100754.06;5086133;28;20095;-78
2024/02/29 06:07:36;;;;;;;44.38;19.42;;;;;;;5.22;100.00;100766.25;5086571;28;20743;-78
2024/02/29 06:10:09;;;;;;;48.40;19.20;;;;;;;5.49;100.00;100792.53;5086599;28;20024;-78
2024/02/29 06:12:35;;;;;;;48.97;20.23;;;;;;;5.53;100.00;100794.66;5084202;28;20078;-77
2024/02/29 06:15:01;;;;;;;55.65;22.67;;;;;;;5.01;100.00;100750.09;5072739;28;20039;-78
2024/02/29 06:17:26;;;;;;;43.38;20.10;;;;;;;5.27;100.00;100789.59;5085421;28;20063;-78
2024/02/29 06:19:52;;;;;;;42.80;19.50;;;;;;;5.26;100.00;100793.22;5085384;28;20121;-78
2024/02/29 06:22:19;;;;;;;44.13;18.50;;;;;;;5.13;100.00;100777.84;5085760;28;20413;-76
2024/02/29 06:24:44;;;;;;;39.40;18.13;;;;;;;5.31;100.00;100790.06;5074547;28;20473;-76
2024/02/29 06:27:10;;;;;;;40.45;18.25;;;;;;;5.34;100.00;100779.16;5075143;28;20051;-77
2024/02/29 06:29:35;;;;;;;46.45;18.70;;;;;;;5.36;100.00;100777.16;5076167;28;20415;-77
2024/02/29 06:32:01;;;;;;;40.80;17.23;;;;;;;5.33;100.00;100756.34;5085251;28;20028;-77
2024/02/29 06:34:27;;;;;;;45.03;19.17;;;;;;;5.39;100.00;100766.25;5085076;28;20024;-77
2024/02/29 06:36:53;;;;;;;37.30;18.35;;;;;;;5.46;100.00;100777.81;5067339;28;20031;-77
2024/02/29 06:39:19;;;;;;;45.47;22.48;;;;;;;5.51;100.00;100756.97;5067447;28;20026;-77
2024/02/29 06:41:45;;;;;;;40.65;18.30;;;;;;;5.59;100.00;100761.41;5085235;28;20035;-77
2024/02/29 06:44:11;;;;;;;41.00;16.65;;;;;;;5.74;100.00;100782.72;5087454;28;20103;-76
2024/02/29 06:46:36;;;;;;;37.38;18.02;;;;;;;5.87;100.00;100783.00;5079212;28;20051;-78
2024/02/29 06:49:02;;;;;;;34.22;17.38;;;;;;;6.00;100.00;100791.25;5079821;28;20031;-77
2024/02/29 06:51:27;;;;;;;34.50;17.20;;;;;;;6.16;100.00;100763.06;5079409;28;20065;-76
2024/02/29 06:53:54;;;;;;;35.95;17.35;;;;;;;6.04;100.00;100770.56;5089870;28;20028;-76
2024/02/29 06:56:19;;;;;;;42.08;19.15;;;;;;;6.11;100.00;100776.00;5071383;28;20042;-77
2024/02/29 06:58:45;;;;;;;38.90;17.70;;;;;;;6.38;100.00;100786.13;5089770;28;20103;-77
2024/02/29 07:01:12;;;;;;;38.55;19.60;;;;;;;6.22;100.00;100778.28;5089698;28;20024;-76
2024/02/29 07:03:38;;;;;;;38.60;17.30;;;;;;;6.28;100.00;100782.88;5089223;28;20477;-77
2024/02/29 07:06:04;;;;;;;35.33;16.92;;;;;;;6.64;100.00;100782.38;5071184;28;20050;-77
2024/02/29 07:08:34;;;;;;;41.70;19.52;;;;;;;6.48;100.00;100750.63;5089793;28;20028;-77
2024/02/29 07:10:59;;;;;;;39.22;19.17;;;;;;;6.53;100.00;100764.19;5071309;28;20038;-76
2024/02/29 07:13:25;;;;;;;33.33;17.27;;;;;;;6.34;100.00;100771.59;5089504;28;20027;-76
2024/02/29 07:15:50;;;;;;;34.38;18.08;;;;;;;6.16;100.00;100760.44;5089344;28;20157;-76
2024/02/29 07:18:16;;;;;;;34.90;18.52;;;;;;;6.21;100.00;100787.19;5089226;28;20030;-75
2024/02/29 07:20:42;;;;;;;36.17;18.10;;;;;;;6.59;100.00;100774.09;5089228;28;20031;-78
2024/02/29 07:23:09;;;;;;;34.70;17.75;;;;;;;6.35;100.00;100759.97;5085229;28;20039;-77
2024/02/29 07:25:35;;;;;;;33.47;17.00;;;;;;;6.51;100.00;100739.69;5088665;28;20481;-77
2024/02/29 07:28:00;;;;;;;35.38;17.20;;;;;;;6.61;100.00;100767.63;5070623;28;20082;-76
2024/02/29 07:30:27;;;;;;;35.70;18.52;;;;;;;6.73;100.00;100746.03;5089064;28;20092;-76
2024/02/29 07:32:52;;;;;;;33.33;17.13;;;;;;;6.61;100.00;100772.91;5088780;28;20481;-78
2024/02/29 07:35:18;;;;;;;36.22;19.02;;;;;;;6.63;100.00;100764.81;5070646;28;20043;-77
2024/02/29 07:37:46;;;;;;;40.17;20.27;;;;;;;6.57;100.00;100753.06;5070423;28;20032;-76
2024/02/29 07:40:12;;;;;;;34.67;17.92;;;;;;;6.76;100.00;100754.44;5070829;28;20038;-76
2024/02/29 07:42:41;;;;;;;37.83;18.98;;;;;;;6.88;100.00;100743.41;5088881;28;20028;-77
2024/02/29 07:45:07;;;;;;;36.25;19.33;;;;;;;7.11;100.00;100762.78;5070753;28;20686;-76
2024/02/29 07:47:33;;;;;;;40.72;22.30;;;;;;;7.08;100.00;100763.13;5088361;28;20035;-77
2024/02/29 07:49:59;;;;;;;38.95;21.42;;;;;;;7.23;100.00;100748.09;5078620;28;20024;-78
2024/02/29 07:52:24;;;;;;;36.47;19.73;;;;;;;7.20;100.00;100758.22;5088055;28;20027;-76
2024/02/29 07:54:50;;;;;;;42.20;19.63;;;;;;;7.19;100.00;100756.56;5075918;28;20028;-77
2024/02/29 07:57:15;;;;;;;38.92;21.73;;;;;;;7.33;100.00;100766.38;5080566;28;20578;-76
2024/02/29 07:59:41;;;;;;;42.60;22.50;;;;;;;7.26;100.00;100765.47;5078802;28;20050;-77
2024/02/29 08:02:06;;;;;;;43.67;23.20;;;;;;;7.26;100.00;100738.94;5088354;28;20412;-76
2024/02/29 08:04:32;;;;;;;38.40;20.45;;;;;;;7.37;100.00;100754.41;5087454;28;20031;-76
2024/02/29 08:06:58;;;;;;;37.92;20.67;;;;;;;7.20;100.00;100767.00;5088707;28;20020;-77
2024/02/29 08:09:24;;;;;;;40.47;21.50;;;;;;;7.12;100.00;100769.72;5088188;28;20107;-77
2024/02/29 08:11:49;;;;;;;44.50;22.20;;;;;;;7.38;100.00;100757.91;5087930;28;20032;-76
2024/02/29 08:14:15;;;;;;;44.13;24.13;;;;;;;7.13;100.00;100755.47;5075489;28;20058;-79
2024/02/29 08:16:40;;;;;;;39.90;20.38;;;;;;;7.46;100.00;100749.88;5087995;28;20020;-77
2024/02/29 08:19:06;;;;;;;45.70;22.20;;;;;;;7.52;100.00;100751.78;5088907;28;20123;-77
2024/02/29 08:21:32;;;;;;;40.20;21.52;;;;;;;7.77;100.00;100751.53;5087755;28;20031;-77
2024/02/29 08:23:58;;;;;;;42.80;21.65;;;;;;;7.98;100.00;100740.16;5075771;28;20032;-76
2024/02/29 08:26:23;;;;;;;46.05;29.08;;;;;;;8.51;100.00;100755.91;5087080;28;20043;-76
2024/02/29 08:28:49;;;;;;;43.35;22.48;;;;;;;8.75;100.00;100754.72;5087714;28;20200;-77
2024/02/29 08:31:15;;;;;;;36.95;18.90;;;;;;;8.39;100.00;100747.56;5087200;28;20111;-76
2024/02/29 08:33:40;;;;;;;46.38;24.35;;;;;;;8.64;100.00;100774.66;5087751;28;20034;-77
2024/02/29 08:36:06;;;;;;;44.50;27.20;;;;;;;8.79;100.00;100756.81;5087909;28;20028;-78
2024/02/29 08:38:34;;;;;;;37.33;20.20;;;;;;;8.69;100.00;100755.50;5069587;28;20261;-79
2024/02/29 08:40:59;;;;;;;35.83;20.30;;;;;;;8.26;100.00;100745.59;5088246;28;20512;-77
2024/02/29 08:43:24;;;;;;;38.42;20.58;;;;;;;8.63;100.00;100762.38;5087127;28;20112;-76
2024/02/29 08:45:51;;;;;;;40.33;24.52;;;;;;;8.57;100.00;100758.63;5087641;28;20056;-78
2024/02/29 08:48:17;;;;;;;38.80;23.83;;;;;;;8.92;100.00;100734.00;5077397;28;20465;-77
2024/02/29 08:50:42;;;;;;;32.15;19.42;;;;;;;8.95;100.00;100744.25;5087456;28;20028;-77
2024/02/29 08:53:08;;;;;;;34.10;19.17;;;;;;;9.16;100.00;100768.19;5087087;28;20132;-78
2024/02/29 08:55:33;;;;;;;34.45;20.08;;;;;;;9.45;100.00;100766.38;5087626;28;20024;-77
2024/02/29 08:57:59;;;;;;;36.88;20.02;;;;;;;10.19;100.00;100768.41;5087788;28;20032;-77
2024/02/29 09:00:25;;;;;;;32.35;19.48;;;;;;;10.87;100.00;100764.94;5069238;28;20106;-78
2024/02/29 09:02:51;;;;;;;32.53;19.63;;;;;;;10.95;100.00;100755.91;5086921;28;20039;-77
2024/02/29 09:05:16;;;;;;;32.40;18.40;;;;;;;11.13;100.00;100758.78;5087040;28;20024;-78
2024/02/29 09:07:42;;;;;;;36.15;22.15;;;;;;;10.67;100.00;100754.22;5086637;28;20034;-78
2024/02/29 09:10:09;;;;;;;33.97;20.55;;;;;;;10.64;100.00;100749.28;5087435;28;20028;-78
2024/02/29 09:12:35;;;;;;;34.13;19.50;;;;;;;10.72;100.00;100762.44;5087449;28;20038;-78
2024/02/29 09:15:02;;;;;;;35.15;19.27;;;;;;;10.72;100.00;100757.09;5086699;28;20028;-77
2024/02/29 09:17:28;;;;;;;59.87;40.63;;;;;;;10.83;100.00;100761.84;5068683;28;21003;-77
2024/02/29 09:19:53;;;;;;;34.13;19.67;;;;;;;10.79;100.00;100757.13;5087165;28;20105;-77
2024/02/29 09:22:19;;;;;;;31.27;19.10;;;;;;;10.91;100.00;100750.16;5086736;28;20026;-77
2024/02/29 09:24:45;;;;;;;39.63;24.05;;;;;;;11.09;100.00;100752.19;5087251;28;20036;-77
2024/02/29 09:27:11;;;;;;;35.08;20.35;;;;;;;11.21;100.00;100729.19;5086425;28;20058;-77
2024/02/29 09:29:36;;;;;;;34.40;19.83;;;;;;;11.52;100.00;100725.03;5086710;28;20032;-76
2024/02/29 09:32:02;;;;;;;33.80;19.02;;;;;;;12.03;100.00;100729.66;5068376;28;20106;-77
2024/02/29 09:34:28;;;;;;;36.03;19.58;;;;;;;12.24;100.00;100733.88;5086727;28;20032;-77
2024/02/29 09:36:53;;;;;;;32.65;19.00;;;;;;;12.44;100.00;100723.09;5086531;28;20042;-76
2024/02/29 09:39:19;;;;;;;36.67;20.50;;;;;;;12.52;100.00;100745.25;5086885;28;20024;-78
2024/02/29 09:41:44;;;;;;;29.48;18.77;;;;;;;12.35;100.00;100735.06;5086701;28;20038;-76
2024/02/29 09:44:11;;;;;;;32.22;19.88;;;;;;;12.83;100.00;100745.25;5086653;28;20039;-78
2024/02/29 09:46:38;;;;;;;30.75;19.25;;;;;;;12.69;100.00;100722.31;5068297;28;20408;-76
2024/02/29 09:49:04;;;;;;;29.92;18.38;;;;;;;12.79;100.00;100728.00;5068403;28;20032;-78
2024/02/29 09:51:31;;;;;;;27.98;18.58;;;;;;;12.78;100.00;100739.72;5086638;28;20039;-77
2024/02/29 09:53:57;;;;;;;31.50;19.63;;;;;;;13.25;100.00;100716.06;5086200;28;20039;-78
2024/02/29 09:56:23;;;;;;;31.10;20.55;;;;;;;12.72;100.00;100713.03;5086398;28;20104;-78
2024/02/29 09:58:51;;;;;;;28.50;17.02;;;;;;;13.14;100.00;100726.69;5076225;28;20036;-77
2024/02/29 10:01:16;;;;;;;29.23;17.97;;;;;;;13.18;100.00;100727.91;5086488;28;20039;-77
2024/02/29 10:03:42;;;;;;;29.60;18.35;;;;;;;13.49;100.00;100707.44;5067865;28;20032;-77
2024/02/29 10:06:09;;;;;;;26.85;17.90;;;;;;;13.60;100.00;100720.09;5086277;28;20028;-78
2024/02/29 10:08:35;;;;;;;25.63;17.55;;;;;;;13.44;100.00;100710.75;5086484;28;20126;-76
2024/02/29 10:11:02;;;;;;;27.85;17.95;;;;;;;13.78;100.00;100738.03;5086074;28;20411;-78
2024/02/29 10:13:38;;;;;;;25.40;16.92;;;;;;;13.68;100.00;100733.19;5086028;28;20028;-78
2024/02/29 10:16:09;;;;;;;25.38;16.00;;;;;;;13.60;100.00;100710.19;5085871;28;20039;-78
2024/02/29 10:18:36;;;;;;;25.50;16.58;;;;;;;13.75;100.00;100723.22;5086463;28;20043;-77
2024/02/29 10:21:16;;;;;;;22.87;15.23;;;;;;;14.06;100.00;100708.81;5086560;28;20020;-77
2024/02/29 10:23:42;;;;;;;24.00;17.17;;;;;;;13.59;100.00;100724.63;5086058;28;20441;-78
2024/02/29 10:26:08;;;;;;;31.75;19.35;;;;;;;14.06;100.00;100691.91;5086121;28;20028;-79
2024/02/29 10:28:34;;;;;;;23.33;15.10;;;;;;;13.84;100.00;100672.81;5086384;28;20139;-78
2024/02/29 10:31:01;;;;;;;23.90;16.52;;;;;;;14.31;100.00;100694.47;5086103;28;20162;-78
2024/02/29 10:33:27;;;;;;;23.35;16.77;;;;;;;14.71;100.00;100691.22;5101646;28;20028;-77
2024/02/29 10:35:52;;;;;;;20.38;15.75;;;;;;;14.93;97.95;100679.91;5067495;28;20100;-77
2024/02/29 10:38:21;;;;;;;24.70;16.00;;;;;;;14.60;100.00;100671.34;5086150;28;20032;-76
2024/02/29 10:40:48;;;;;;;;;;;;;;;14.69;99.55;100679.91;5086404;28;20047;-76
2024/02/29 10:43:14;;;;;;;22.38;14.85;;;;;;;15.08;95.10;100650.72;5086236;28;19915;-77
2024/02/29 10:45:48;;;;;;;21.35;14.98;;;;;;;14.71;98.81;100645.59;5085574;28;20046;-77
2024/02/29 10:48:29;;;;;;;24.35;15.05;;;;;;;15.17;96.07;100662.75;5085699;28;20031;-77
2024/02/29 10:51:00;;;;;;;22.02;15.32;;;;;;;15.30;97.42;100655.47;5085950;28;20020;-77
2024/02/29 10:53:54;;;;;;;21.10;14.88;;;;;;;15.22;95.67;100649.44;5085606;28;20032;-77
2024/02/29 10:56:23;;;;;;;20.60;14.27;;;;;;;14.91;97.37;100644.41;5085036;28;20035;-76
2024/02/29 10:59:05;;;;;;;22.45;15.80;;;;;;;15.25;95.14;100643.56;5082653;28;20038;-78
2024/02/29 11:01:35;;;;;;;23.98;16.10;;;;;;;15.46;94.91;100617.94;5082817;28;20085;-77
2024/02/29 11:04:01;;;;;;;23.35;15.55;;;;;;;15.64;93.47;100611.59;5085217;28;20042;-77